Time;durP1;ratioP1;P1;durP2;ratioP2;P2;SDS_P1;SDS_P2;PMS_P1;PMS_P2;Temp;Humidity;BMP_temperature;BMP_pressure;BME280_temperature;BME280_humidity;BME280_pressure;Samples;Min_cycle;Max_cycle;Signal;HPM_P1;HPM_P2
2021/03/06 00:00:20;;;;;;;10.68;4.47;;;-2.80;99.90;;;;;;4915952;28;20098;-78
2021/03/06 00:02:42;;;;;;;9.90;4.85;;;-2.80;99.90;;;;;;4913875;28;20090;-78
2021/03/06 00:05:07;;;;;;;14.63;4.45;;;-2.70;99.90;;;;;;4912582;28;20096;-78
2021/03/06 00:07:29;;;;;;;9.23;4.32;;;-2.70;99.90;;;;;;4911609;28;20208;-78
2021/03/06 00:09:52;;;;;;;10.35;4.18;;;-2.70;99.90;;;;;;4913211;28;20172;-78
2021/03/06 00:12:15;;;;;;;16.95;4.65;;;-2.70;99.90;;;;;;4910789;28;20533;-78
2021/03/06 00:14:37;;;;;;;11.38;4.75;;;-2.70;99.90;;;;;;4914092;28;20109;-78
2021/03/06 00:17:01;;;;;;;14.45;4.65;;;-2.60;99.90;;;;;;4912702;28;20426;-78
2021/03/06 00:19:24;;;;;;;10.57;4.32;;;-2.60;99.90;;;;;;4912770;28;20089;-78
2021/03/06 00:21:47;;;;;;;11.20;4.40;;;-2.60;99.90;;;;;;4910983;28;20094;-78
2021/03/06 00:24:11;;;;;;;11.10;4.05;;;-2.60;99.90;;;;;;4910413;28;20094;-78
2021/03/06 00:26:34;;;;;;;11.48;4.57;;;-2.50;99.90;;;;;;4913765;28;20092;-79
2021/03/06 00:28:56;;;;;;;10.40;4.82;;;-2.50;99.90;;;;;;4914327;28;20136;-78
2021/03/06 00:31:19;;;;;;;19.73;5.50;;;-2.50;99.90;;;;;;4913248;28;20094;-79
2021/03/06 00:33:43;;;;;;;13.48;4.18;;;-2.50;99.90;;;;;;4910972;28;20093;-78
2021/03/06 00:36:07;;;;;;;8.68;3.78;;;-2.40;99.90;;;;;;4911394;28;20132;-78
2021/03/06 00:38:29;;;;;;;7.40;4.03;;;-2.50;99.90;;;;;;4915726;28;20583;-79
2021/03/06 00:40:52;;;;;;;21.52;4.93;;;-2.40;99.90;;;;;;4908873;28;20529;-78
2021/03/06 00:43:15;;;;;;;11.23;4.90;;;-2.60;99.90;;;;;;4914871;28;20090;-78
2021/03/06 00:45:39;;;;;;;12.80;4.90;;;-2.70;99.90;;;;;;4915542;28;20111;-78
2021/03/06 00:48:02;;;;;;;13.80;4.65;;;-2.90;99.90;;;;;;4916287;28;21247;-79
2021/03/06 00:50:31;;;;;;;9.27;4.18;;;-3.00;99.90;;;;;;4915681;28;20482;-77
2021/03/06 00:52:53;;;;;;;17.75;4.85;;;-3.10;99.90;;;;;;4910524;28;20417;-79
2021/03/06 00:55:16;;;;;;;10.70;4.18;;;-3.20;99.90;;;;;;4918118;28;20098;-78
2021/03/06 00:57:39;;;;;;;9.77;4.18;;;-3.30;99.90;;;;;;4917739;28;20086;-79
2021/03/06 01:00:02;;;;;;;14.32;3.78;;;-3.30;99.90;;;;;;4918832;28;20573;-79
2021/03/06 01:02:24;;;;;;;9.20;3.95;;;-3.30;99.90;;;;;;4892304;28;710945;-78
2021/03/06 01:04:47;;;;;;;8.45;3.65;;;-3.20;99.90;;;;;;4918998;28;20563;-79
2021/03/06 01:07:11;;;;;;;9.77;4.50;;;-3.20;99.90;;;;;;4918207;28;20092;-79
2021/03/06 01:09:37;;;;;;;10.55;3.85;;;-3.10;99.90;;;;;;4914703;28;20090;-77
2021/03/06 01:11:59;;;;;;;9.05;3.80;;;-3.20;99.90;;;;;;4921292;28;20105;-78
2021/03/06 01:14:23;;;;;;;7.68;4.03;;;-3.20;99.90;;;;;;4919732;28;20098;-79
2021/03/06 01:16:46;;;;;;;7.95;3.55;;;-3.20;99.90;;;;;;4917280;28;20563;-79
2021/03/06 01:19:08;;;;;;;10.70;4.22;;;-3.30;99.90;;;;;;4921193;28;20493;-78
2021/03/06 01:21:31;;;;;;;11.93;3.78;;;-3.30;99.90;;;;;;4914645;28;20431;-78
2021/03/06 01:23:55;;;;;;;12.27;3.85;;;-3.30;99.90;;;;;;4920634;28;20095;-79
2021/03/06 01:26:17;;;;;;;13.20;4.72;;;-3.30;99.90;;;;;;4918660;28;20085;-78
2021/03/06 01:28:40;;;;;;;8.77;4.22;;;-3.40;99.90;;;;;;4916530;28;20111;-79
2021/03/06 01:31:03;;;;;;;14.57;4.38;;;;;;;;;;4921517;28;20091;-79
2021/03/06 01:33:26;;;;;;;12.63;4.20;;;-3.40;99.90;;;;;;4914632;28;20113;-79
2021/03/06 01:35:49;;;;;;;9.52;4.05;;;-3.50;99.90;;;;;;4914436;28;20139;-78
2021/03/06 01:38:12;;;;;;;9.95;3.83;;;-3.50;99.90;;;;;;4914492;28;20101;-77
2021/03/06 01:40:37;;;;;;;10.05;3.80;;;-3.50;99.90;;;;;;4920040;28;20098;-78
2021/03/06 01:43:03;;;;;;;12.93;4.13;;;-3.50;99.90;;;;;;4914076;28;20148;-78
2021/03/06 01:45:26;;;;;;;9.75;3.53;;;-3.50;99.90;;;;;;4914851;28;20151;-79
2021/03/06 01:47:50;;;;;;;7.45;3.60;;;-3.60;99.90;;;;;;4914769;28;20086;-79
2021/03/06 01:50:19;;;;;;;14.23;4.57;;;-3.60;99.90;;;;;;4916466;28;20098;-78
2021/03/06 01:52:41;;;;;;;7.25;3.42;;;-3.50;99.90;;;;;;4915273;28;20098;-78
2021/03/06 01:55:06;;;;;;;11.60;4.10;;;-3.50;99.90;;;;;;4916596;28;20835;-78
2021/03/06 01:57:31;;;;;;;9.63;3.58;;;-3.60;99.90;;;;;;4915655;28;20103;-78
2021/03/06 01:59:54;;;;;;;12.82;3.95;;;-3.60;99.90;;;;;;4917107;28;20097;-79
2021/03/06 02:02:17;;;;;;;14.82;4.05;;;-3.50;99.90;;;;;;4919646;28;20109;-78
2021/03/06 02:04:40;;;;;;;9.23;3.10;;;-3.60;99.90;;;;;;4913527;28;20099;-78
2021/03/06 02:07:03;;;;;;;8.25;3.70;;;-3.60;99.90;;;;;;4919490;27;20103;-78
2021/03/06 02:09:26;;;;;;;12.63;3.78;;;-3.50;99.90;;;;;;4915320;28;20090;-79
2021/03/06 02:11:54;;;;;;;7.93;3.83;;;-3.50;99.90;;;;;;4917054;27;20083;-78
2021/03/06 02:14:49;;;;;;;12.82;4.30;;;-3.50;99.90;;;;;;4914378;28;20121;-78
2021/03/06 02:17:20;;;;;;;7.30;3.58;;;-3.50;99.90;;;;;;4916528;28;20189;-79
2021/03/06 02:20:16;;;;;;;9.13;3.90;;;-3.50;99.90;;;;;;4910514;28;20568;-79
2021/03/06 02:22:55;;;;;;;14.73;3.67;;;-3.50;99.90;;;;;;4913667;28;20533;-78
2021/03/06 02:25:35;;;;;;;9.73;3.47;;;-3.40;99.90;;;;;;4915421;28;20102;-78
2021/03/06 02:28:07;;;;;;;13.25;3.40;;;-3.40;99.90;;;;;;4915297;28;20126;-79
2021/03/06 02:30:33;;;;;;;8.98;2.92;;;-3.30;99.90;;;;;;4916500;28;20108;-79
2021/03/06 02:32:58;;;;;;;8.52;3.67;;;-3.20;99.90;;;;;;4917261;28;20093;-78
2021/03/06 02:35:24;;;;;;;14.33;4.10;;;-3.20;99.90;;;;;;4912113;28;20086;-78
2021/03/06 02:37:50;;;;;;;7.88;3.30;;;-3.30;99.90;;;;;;4918157;28;20124;-79
2021/03/06 02:40:16;;;;;;;7.82;3.80;;;-3.30;99.90;;;;;;4916647;28;20101;-78
2021/03/06 02:42:40;;;;;;;8.48;3.38;;;-3.30;99.90;;;;;;4913569;28;20091;-78
2021/03/06 02:45:04;;;;;;;7.13;3.20;;;-3.50;99.90;;;;;;4913070;28;20679;-78
2021/03/06 02:47:28;;;;;;;6.88;3.25;;;;;;;;;;4914016;28;20154;-78
2021/03/06 02:49:52;;;;;;;12.38;3.60;;;-3.20;99.90;;;;;;4912801;28;20085;-77
2021/03/06 02:52:14;;;;;;;6.80;3.35;;;-3.10;99.90;;;;;;4918556;28;20130;-78
2021/03/06 02:54:37;;;;;;;9.40;3.88;;;-3.10;99.90;;;;;;4913984;28;20118;-79
2021/03/06 02:57:00;;;;;;;8.93;3.47;;;-3.00;99.90;;;;;;4916897;28;20097;-78
2021/03/06 02:59:46;;;;;;;8.38;3.50;;;-3.00;99.90;;;;;;4920159;28;20096;-77
2021/03/06 03:02:13;;;;;;;;;;;-2.90;99.90;;;;;;4911958;28;20105;-78
2021/03/06 03:04:46;;;;;;;6.78;3.08;;;-2.90;99.90;;;;;;4914228;28;20657;-78
2021/03/06 03:07:15;;;;;;;6.40;2.78;;;-2.80;99.90;;;;;;4915895;28;20120;-78
2021/03/06 03:09:43;;;;;;;4.25;2.17;;;-2.80;99.90;;;;;;4911650;27;20112;-78
2021/03/06 03:12:12;;;;;;;5.63;2.53;;;-2.90;99.90;;;;;;4912926;28;20097;-79
2021/03/06 03:14:43;;;;;;;7.88;2.72;;;-2.90;99.90;;;;;;4917589;28;20103;-79
2021/03/06 03:17:12;;;;;;;6.15;2.83;;;-2.90;99.90;;;;;;4917605;28;20096;-79
2021/03/06 03:19:43;;;;;;;10.13;2.40;;;-3.00;99.90;;;;;;4912592;28;20087;-79
2021/03/06 03:22:09;;;;;;;7.78;2.85;;;-3.00;99.90;;;;;;4913565;28;20098;-79
2021/03/06 03:24:38;;;;;;;7.97;2.60;;;-3.00;99.90;;;;;;4913002;28;20135;-78
2021/03/06 03:27:02;;;;;;;6.63;2.50;;;-3.10;99.90;;;;;;4920792;28;20090;-78
2021/03/06 03:29:27;;;;;;;8.85;2.72;;;-3.00;99.90;;;;;;4914144;28;20141;-78
2021/03/06 03:31:51;;;;;;;5.78;2.40;;;-3.10;99.90;;;;;;4917127;28;20569;-79
2021/03/06 03:34:17;;;;;;;5.20;2.63;;;-3.10;99.90;;;;;;4916683;28;20087;-79
2021/03/06 03:36:41;;;;;;;8.85;3.00;;;-3.00;99.90;;;;;;4914934;28;20113;-79
2021/03/06 03:39:06;;;;;;;7.20;2.65;;;-3.10;99.90;;;;;;4920294;28;20168;-79
2021/03/06 03:41:29;;;;;;;6.40;2.30;;;-3.10;99.90;;;;;;4914044;28;20086;-80
2021/03/06 03:43:54;;;;;;;4.80;2.60;;;-3.10;99.90;;;;;;4915519;28;20559;-79
2021/03/06 03:46:17;;;;;;;6.68;2.42;;;-3.10;99.90;;;;;;4915908;28;20178;-78
2021/03/06 03:48:43;;;;;;;4.63;2.20;;;-3.10;99.90;;;;;;4912579;28;20568;-79
2021/03/06 03:51:06;;;;;;;6.45;2.30;;;-3.10;99.90;;;;;;4913312;28;20101;-79
2021/03/06 03:53:31;;;;;;;7.13;2.90;;;-3.10;99.90;;;;;;4914994;28;20099;-78
2021/03/06 03:55:54;;;;;;;12.02;2.35;;;-3.20;99.90;;;;;;4916883;28;20100;-78
2021/03/06 03:58:17;;;;;;;6.70;2.05;;;-3.20;99.90;;;;;;4915270;28;20097;-79
2021/03/06 04:00:39;;;;;;;5.00;2.08;;;-3.30;99.90;;;;;;4913064;28;20172;-79
2021/03/06 04:03:04;;;;;;;5.97;2.45;;;-3.40;99.90;;;;;;4916067;28;20141;-78
2021/03/06 04:05:26;;;;;;;10.43;2.60;;;-3.40;99.90;;;;;;4910040;28;20121;-78
2021/03/06 04:07:51;;;;;;;3.97;2.17;;;-3.40;99.90;;;;;;4915350;28;20513;-79
2021/03/06 04:10:17;;;;;;;6.97;2.60;;;-3.50;99.90;;;;;;4915724;28;20083;-78
2021/03/06 04:12:41;;;;;;;12.02;2.35;;;-3.50;99.90;;;;;;4914284;28;20506;-79
2021/03/06 04:15:05;;;;;;;5.50;2.20;;;-3.40;99.90;;;;;;4915571;28;20101;-78
2021/03/06 04:17:27;;;;;;;4.10;2.20;;;-3.40;99.90;;;;;;4917254;28;20198;-79
2021/03/06 04:19:50;;;;;;;6.68;2.40;;;-3.40;99.90;;;;;;4913659;28;20143;-79
2021/03/06 04:22:12;;;;;;;8.20;2.85;;;-3.40;99.90;;;;;;4914957;28;20092;-78
2021/03/06 04:24:35;;;;;;;6.53;2.53;;;-3.30;99.90;;;;;;4911823;28;20101;-79
2021/03/06 04:26:58;;;;;;;6.55;2.65;;;-3.30;99.90;;;;;;4913061;28;20098;-78
2021/03/06 04:29:21;;;;;;;10.38;2.55;;;-3.30;99.90;;;;;;4912110;28;20106;-79
2021/03/06 04:31:44;;;;;;;5.25;2.33;;;-3.30;99.90;;;;;;4913197;28;20545;-79
2021/03/06 04:34:07;;;;;;;9.60;2.60;;;-3.30;99.90;;;;;;4915546;28;20093;-78
2021/03/06 04:36:29;;;;;;;8.82;2.53;;;-3.30;99.90;;;;;;4917818;28;20140;-78
2021/03/06 04:38:52;;;;;;;5.20;2.22;;;-3.40;99.90;;;;;;4915777;28;20113;-79
2021/03/06 04:41:15;;;;;;;4.97;2.35;;;-3.40;99.90;;;;;;4914289;28;20094;-79
2021/03/06 04:43:38;;;;;;;7.68;2.35;;;-3.40;99.90;;;;;;4913218;28;20160;-79
2021/03/06 04:46:02;;;;;;;7.82;2.60;;;-3.30;99.90;;;;;;4915172;28;20097;-78
2021/03/06 04:48:25;;;;;;;7.68;2.83;;;-3.20;99.90;;;;;;4917711;28;20103;-78
2021/03/06 04:50:48;;;;;;;9.65;2.63;;;-3.20;99.90;;;;;;4919443;28;20102;-79
2021/03/06 04:53:10;;;;;;;6.78;2.90;;;-3.10;99.90;;;;;;4917178;28;20430;-78
2021/03/06 04:55:33;;;;;;;11.48;2.60;;;-3.00;99.90;;;;;;4911761;28;20093;-79
2021/03/06 04:57:55;;;;;;;9.43;3.00;;;-3.00;99.90;;;;;;4916106;28;20100;-78
2021/03/06 05:00:19;;;;;;;14.13;3.17;;;-3.00;99.90;;;;;;4918260;28;20091;-79
2021/03/06 05:02:42;;;;;;;8.63;2.90;;;-2.90;99.90;;;;;;4912413;28;20115;-79
2021/03/06 05:05:07;;;;;;;9.70;3.25;;;-2.90;99.90;;;;;;4915572;28;20092;-79
2021/03/06 05:07:29;;;;;;;9.88;2.75;;;-3.00;99.90;;;;;;4910144;28;20096;-78
2021/03/06 05:09:52;;;;;;;9.30;3.28;;;-3.00;99.90;;;;;;4911496;28;20105;-79
2021/03/06 05:12:15;;;;;;;8.95;2.85;;;-3.00;99.90;;;;;;4913084;28;20101;-79
2021/03/06 05:14:38;;;;;;;8.70;3.20;;;;;;;;;;4915771;28;20104;-78
2021/03/06 05:17:02;;;;;;;10.35;3.58;;;-3.00;99.90;;;;;;4910566;28;20098;-78
2021/03/06 05:19:25;;;;;;;14.90;3.78;;;-3.00;99.90;;;;;;4912449;28;20555;-77
2021/03/06 05:21:47;;;;;;;7.88;3.35;;;-3.00;99.90;;;;;;4915973;28;20090;-79
2021/03/06 05:24:10;;;;;;;7.57;3.25;;;-3.00;99.90;;;;;;4912012;28;20087;-78
2021/03/06 05:26:34;;;;;;;11.77;3.33;;;-3.00;99.90;;;;;;4913779;28;20095;-79
2021/03/06 05:28:56;;;;;;;18.77;3.42;;;-2.90;99.90;;;;;;4914765;28;20098;-79
2021/03/06 05:31:19;;;;;;;9.65;3.55;;;-2.90;99.90;;;;;;4920369;28;20515;-81
2021/03/06 05:33:42;;;;;;;14.23;3.03;;;-2.90;99.90;;;;;;4915737;28;20085;-79
2021/03/06 05:36:06;;;;;;;12.85;3.53;;;-2.90;99.90;;;;;;4917447;28;20792;-79
2021/03/06 05:38:29;;;;;;;7.68;3.17;;;-3.00;99.90;;;;;;4916853;28;20162;-79
2021/03/06 05:40:52;;;;;;;7.80;3.65;;;-2.90;99.90;;;;;;4917439;28;20137;-79
2021/03/06 05:43:16;;;;;;;6.10;2.95;;;-2.90;99.90;;;;;;4913224;28;20101;-79
2021/03/06 05:45:39;;;;;;;12.23;4.28;;;-2.90;99.90;;;;;;4917016;28;20095;-78
2021/03/06 05:48:03;;;;;;;12.45;3.25;;;-2.90;99.90;;;;;;4917978;28;20089;-78
2021/03/06 05:50:28;;;;;;;16.13;3.33;;;-2.80;99.90;;;;;;4916369;28;20095;-79
2021/03/06 05:52:51;;;;;;;9.70;3.08;;;-2.80;99.90;;;;;;4917807;28;20114;-79
2021/03/06 05:55:18;;;;;;;6.90;3.08;;;-2.80;99.90;;;;;;4916972;27;20452;-79
2021/03/06 05:57:41;;;;;;;15.32;3.42;;;-2.80;99.90;;;;;;4917419;28;20090;-79
2021/03/06 06:00:05;;;;;;;6.82;3.17;;;-2.70;99.90;;;;;;4919730;28;20441;-79
2021/03/06 06:02:28;;;;;;;7.35;2.53;;;-2.70;99.90;;;;;;4914415;28;20091;-78
2021/03/06 06:04:50;;;;;;;8.30;3.55;;;-2.70;99.90;;;;;;4914574;28;20160;-77
2021/03/06 06:07:17;;;;;;;12.38;4.10;;;-2.70;99.90;;;;;;4919444;27;20097;-79
2021/03/06 06:09:39;;;;;;;11.05;3.05;;;-2.70;99.90;;;;;;4918423;28;20089;-79
2021/03/06 06:12:06;;;;;;;11.48;3.58;;;-2.60;99.90;;;;;;4918198;28;20243;-79
2021/03/06 06:14:29;;;;;;;14.13;3.10;;;-2.60;99.90;;;;;;4918457;28;20110;-79
2021/03/06 06:16:52;;;;;;;10.55;3.53;;;-2.50;99.90;;;;;;4915222;28;20101;-78
2021/03/06 06:19:14;;;;;;;18.83;3.53;;;-2.40;99.90;;;;;;4916819;28;20101;-79
2021/03/06 06:21:43;;;;;;;8.98;3.13;;;-2.40;99.90;;;;;;4919190;28;20093;-79
2021/03/06 06:24:09;;;;;;;22.95;3.63;;;-2.30;99.90;;;;;;4914655;28;20652;-79
2021/03/06 06:26:32;;;;;;;9.45;3.38;;;;;;;;;;4908983;28;20140;-79
2021/03/06 06:28:55;;;;;;;6.68;3.05;;;-1.90;99.90;;;;;;4930230;28;20093;-79
2021/03/06 06:31:17;;;;;;;12.07;4.10;;;-1.70;99.90;;;;;;4920545;28;20102;-78
2021/03/06 06:33:40;;;;;;;9.40;3.85;;;-1.40;99.90;;;;;;4918884;27;20527;-79
2021/03/06 06:36:04;;;;;;;7.93;3.42;;;-1.20;99.90;;;;;;4913122;28;20092;-79
2021/03/06 06:38:40;;;;;;;9.15;3.58;;;-0.90;99.90;;;;;;4926357;28;20094;-78
2021/03/06 06:41:04;;;;;;;9.52;3.53;;;-0.60;99.90;;;;;;4917367;28;20136;-79
2021/03/06 06:43:27;;;;;;;15.68;4.07;;;-0.30;99.90;;;;;;4914385;28;20094;-78
2021/03/06 06:45:51;;;;;;;11.65;3.85;;;0.00;99.90;;;;;;4920641;28;21184;-79
2021/03/06 06:48:14;;;;;;;13.95;3.50;;;0.70;99.90;;;;;;4915439;28;20093;-79
2021/03/06 06:50:37;;;;;;;7.35;3.30;;;1.50;99.90;;;;;;4915218;28;20149;-79
2021/03/06 06:53:00;;;;;;;11.63;2.80;;;2.60;99.90;;;;;;4916084;28;20497;-79
2021/03/06 06:55:34;;;;;;;6.97;3.35;;;3.10;99.90;;;;;;4918634;28;20136;-79
2021/03/06 06:57:59;;;;;;;9.20;2.45;;;3.60;99.90;;;;;;4914116;28;20460;-79
2021/03/06 07:00:22;;;;;;;8.68;3.33;;;4.50;99.90;;;;;;4918865;28;20177;-80
2021/03/06 07:02:53;;;;;;;10.38;3.20;;;5.10;99.90;;;;;;4914596;28;20479;-79
2021/03/06 07:05:26;;;;;;;10.02;2.90;;;5.30;99.90;;;;;;4912168;28;20087;-79
2021/03/06 07:07:50;;;;;;;10.13;2.72;;;5.50;99.90;;;;;;4914518;28;20164;-79
2021/03/06 07:10:14;;;;;;;5.47;2.47;;;5.70;99.90;;;;;;4916419;28;20102;-80
2021/03/06 07:12:39;;;;;;;13.55;2.97;;;6.10;99.90;;;;;;4917863;28;20098;-80
2021/03/06 07:15:13;;;;;;;4.90;2.13;;;6.40;99.90;;;;;;4915691;28;20084;-80
2021/03/06 07:17:40;;;;;;;9.95;2.17;;;6.80;99.90;;;;;;4911726;28;20088;-79
2021/03/06 07:20:04;;;;;;;9.13;2.42;;;7.30;99.90;;;;;;4916767;28;20515;-80
2021/03/06 07:22:28;;;;;;;6.43;2.17;;;7.20;99.90;;;;;;4914203;28;20080;-80
2021/03/06 07:24:51;;;;;;;7.90;2.38;;;7.10;99.90;;;;;;4913246;28;20539;-81
2021/03/06 07:27:14;;;;;;;4.90;1.88;;;6.90;99.90;;;;;;4913621;28;20095;-81
2021/03/06 07:29:36;;;;;;;10.02;2.78;;;7.10;99.90;;;;;;4913561;28;20467;-80
2021/03/06 07:32:01;;;;;;;7.45;2.42;;;7.10;99.90;;;;;;4915822;28;20080;-80
2021/03/06 07:34:26;;;;;;;6.13;2.03;;;7.40;99.90;;;;;;4915654;28;20103;-81
2021/03/06 07:36:50;;;;;;;14.73;2.55;;;7.70;99.90;;;;;;4919262;28;20075;-80
2021/03/06 07:39:15;;;;;;;5.18;1.73;;;7.40;99.90;;;;;;4912850;28;20089;-80
2021/03/06 07:41:42;;;;;;;11.20;1.83;;;7.40;99.90;;;;;;4914020;28;20104;-80
2021/03/06 07:44:06;;;;;;;9.32;1.80;;;7.70;99.90;;;;;;4916418;28;20090;-81
2021/03/06 07:46:30;;;;;;;5.57;2.10;;;7.30;99.90;;;;;;4915700;28;20093;-80
2021/03/06 07:48:58;;;;;;;6.30;1.98;;;5.50;99.90;;;;;;4916704;27;20533;-81
2021/03/06 07:51:22;;;;;;;9.43;2.08;;;4.10;99.90;;;;;;4915363;28;20094;-80
2021/03/06 07:53:46;;;;;;;9.85;2.15;;;3.00;99.90;;;;;;4913482;28;20087;-80
2021/03/06 07:56:10;;;;;;;4.22;1.92;;;2.20;99.90;;;;;;4912681;28;20120;-80
2021/03/06 07:58:46;;;;;;;8.48;2.33;;;2.10;99.90;;;;;;4918305;28;20726;-81
2021/03/06 08:01:24;;;;;;;6.60;1.60;;;2.30;99.90;;;;;;4915739;28;20090;-79
2021/03/06 08:03:47;;;;;;;13.23;2.50;;;2.30;99.90;;;;;;4907987;28;20637;-80
2021/03/06 08:06:19;;;;;;;5.00;2.78;;;2.50;99.90;;;;;;4916659;28;20212;-80
2021/03/06 08:09:05;;;;;;;4.00;2.10;;;2.50;99.90;;;;;;4914012;28;20090;-80
2021/03/06 08:11:39;;;;;;;9.75;2.40;;;2.50;99.90;;;;;;4914433;28;20453;-80
2021/03/06 08:14:05;;;;;;;14.25;2.67;;;2.60;99.90;;;;;;4912476;28;20136;-80
2021/03/06 08:16:41;;;;;;;8.35;1.90;;;2.70;99.90;;;;;;4915759;28;20504;-81
2021/03/06 08:19:24;;;;;;;4.75;1.95;;;2.50;99.90;;;;;;4913268;28;20090;-81
2021/03/06 08:21:50;;;;;;;18.38;1.98;;;2.60;99.90;;;;;;4911610;28;20094;-81
2021/03/06 08:24:24;;;;;;;;;;;2.60;99.90;;;;;;4918108;28;20074;-78
2021/03/06 08:26:52;;;;;;;7.80;2.30;;;2.60;99.90;;;;;;4912490;28;19970;-79
2021/03/06 08:29:35;;;;;;;12.48;2.45;;;2.60;99.90;;;;;;4916159;28;20109;-79
2021/03/06 08:32:00;;;;;;;10.15;2.53;;;2.80;99.90;;;;;;4908838;28;20090;-78
2021/03/06 08:34:31;;;;;;;6.97;2.63;;;3.10;99.90;;;;;;4914466;28;20090;-79
2021/03/06 08:37:29;;;;;;;11.10;2.47;;;3.00;99.90;;;;;;4915227;28;20083;-78
2021/03/06 08:39:53;;;;;;;6.10;2.15;;;2.80;99.90;;;;;;4909951;28;20090;-79
2021/03/06 08:42:18;;;;;;;8.48;2.35;;;2.70;99.90;;;;;;4912525;28;20097;-79
2021/03/06 08:44:41;;;;;;;5.53;2.10;;;2.50;99.90;;;;;;4911732;28;20147;-80
2021/03/06 08:47:05;;;;;;;11.75;2.17;;;2.40;99.90;;;;;;4913818;28;20086;-77
2021/03/06 08:49:31;;;;;;;11.50;2.40;;;2.20;99.90;;;;;;4915208;28;20182;-79
2021/03/06 08:51:55;;;;;;;8.38;2.17;;;2.10;99.90;;;;;;4911423;28;20091;-80
2021/03/06 08:54:21;;;;;;;12.07;2.70;;;2.10;99.90;;;;;;4902204;28;20113;-81
2021/03/06 08:56:43;;;;;;;;;;;2.10;99.90;;;;;;4914274;28;20146;-79
2021/03/06 08:59:07;;;;;;;6.43;2.22;;;1.90;99.90;;;;;;4914559;28;20005;-79
2021/03/06 09:01:33;;;;;;;12.02;2.45;;;1.90;99.90;;;;;;4901917;28;20152;-79
2021/03/06 09:04:03;;;;;;;4.80;2.33;;;1.80;99.90;;;;;;4871194;28;20711;-78
2021/03/06 09:06:35;;;;;;;12.90;2.45;;;1.80;99.90;;;;;;4866668;28;20870;-83
2021/03/06 09:09:12;;;;;;;5.57;1.90;;;1.80;99.90;;;;;;4917290;28;20477;-82
2021/03/06 09:11:58;;;;;;;8.93;2.70;;;1.80;99.90;;;;;;4885156;27;20176;-82
2021/03/06 09:14:21;;;;;;;14.13;2.70;;;1.90;99.90;;;;;;4884450;28;20165;-79
2021/03/06 09:16:47;;;;;;;10.98;2.60;;;1.90;99.90;;;;;;4874840;27;20174;-82
2021/03/06 09:19:33;;;;;;;6.88;2.55;;;1.90;99.90;;;;;;4880699;28;20093;-80
2021/03/06 09:22:08;;;;;;;6.73;2.00;;;2.00;99.90;;;;;;4879138;28;20120;-79
2021/03/06 09:24:56;;;;;;;13.90;2.50;;;2.00;99.90;;;;;;4863592;27;20503;-81
2021/03/06 09:27:20;;;;;;;9.35;2.60;;;2.20;99.90;;;;;;4873328;27;20534;-81
2021/03/06 09:29:45;;;;;;;10.80;2.33;;;2.50;99.90;;;;;;4884230;28;20114;-83
2021/03/06 09:32:24;;;;;;;4.72;1.77;;;2.70;99.90;;;;;;4886526;27;20086;-79
2021/03/06 09:34:55;;;;;;;9.18;2.65;;;2.70;99.90;;;;;;4899644;28;20113;-81
2021/03/06 09:37:19;;;;;;;5.80;1.95;;;2.60;99.90;;;;;;4890783;28;20177;-83
2021/03/06 09:39:42;;;;;;;10.48;2.63;;;2.50;99.90;;;;;;4902737;27;20457;-84
2021/03/06 09:42:28;;;;;;;8.15;2.08;;;2.40;99.90;;;;;;4865294;27;20121;-84
2021/03/06 09:45:40;;;;;;;4.60;2.03;;;2.40;99.90;;;;;;4849468;27;20110;-83
2021/03/06 09:48:16;;;;;;;6.38;2.22;;;2.40;99.90;;;;;;4871189;27;20206;-82
2021/03/06 09:50:46;;;;;;;;;;;2.40;99.90;;;;;;4861178;27;20102;-82
2021/03/06 09:53:31;;;;;;;4.25;2.35;;;2.50;99.90;;;;;;4858844;28;19977;-81
2021/03/06 09:56:32;;;;;;;9.98;3.83;;;2.40;99.90;;;;;;4849527;27;20094;-83
2021/03/06 09:59:03;;;;;;;14.05;6.00;;;2.50;99.90;;;;;;4857558;28;22230;-82
2021/03/06 10:01:28;;;;;;;10.27;3.35;;;2.50;99.90;;;;;;4869370;28;20169;-82
2021/03/06 10:07:39;;;;;;;6.18;3.25;;;2.60;99.90;;;;;;4857016;27;20442;-84
2021/03/06 10:10:21;;;;;;;14.18;3.33;;;2.60;99.90;;;;;;4864783;27;20113;-82
2021/03/06 10:13:01;;;;;;;6.85;3.15;;;2.60;99.90;;;;;;4862522;27;20522;-84
2021/03/06 10:16:24;;;;;;;9.57;3.00;;;2.60;99.90;;;;;;4851958;27;20085;-84
2021/03/06 10:19:50;;;;;;;8.50;2.72;;;2.70;99.90;;;;;;4857616;27;20591;-84
2021/03/06 10:23:14;;;;;;;7.13;2.40;;;3.00;99.90;;;;;;4854731;27;20097;-85
2021/03/06 10:25:51;;;;;;;4.97;3.28;;;3.10;99.90;;;;;;4868000;28;20141;-85
2021/03/06 10:38:33;;;;;;;8.73;3.40;;;3.80;99.90;;;;;;4861832;28;20094;-86
2021/03/06 10:41:10;;;;;;;9.60;3.05;;;4.10;99.90;;;;;;4869951;28;20438;-85
2021/03/06 10:44:02;;;;;;;8.63;3.13;;;4.40;99.90;;;;;;4855119;28;20145;-88
2021/03/06 10:46:36;;;;;;;6.82;3.05;;;4.40;99.90;;;;;;4863827;28;20448;-86
2021/03/06 10:49:24;;;;;;;8.73;3.50;;;4.40;99.90;;;;;;4857982;27;20083;-85
2021/03/06 10:52:11;;;;;;;13.18;3.15;;;4.60;99.90;;;;;;4853523;27;20128;-87
2021/03/06 10:54:52;;;;;;;11.20;2.92;;;4.60;99.90;;;;;;4910092;28;20530;-88
2021/03/06 10:57:14;;;;;;;7.32;2.55;;;4.20;99.90;;;;;;4913283;28;20090;-86
2021/03/06 10:59:37;;;;;;;6.60;2.55;;;4.10;99.90;;;;;;4918565;28;20094;-87
2021/03/06 11:02:00;;;;;;;15.43;2.80;;;3.90;99.90;;;;;;4919736;28;20083;-87
2021/03/06 11:04:27;;;;;;;17.58;3.97;;;3.80;99.90;;;;;;4919046;28;20098;-84
2021/03/06 11:06:54;;;;;;;10.57;2.70;;;3.60;99.90;;;;;;4915614;28;20086;-88
2021/03/06 11:09:25;;;;;;;8.07;2.80;;;3.50;99.90;;;;;;4914138;28;20526;-88
2021/03/06 11:11:49;;;;;;;7.97;2.45;;;3.50;99.90;;;;;;4917099;28;20086;-86
2021/03/06 11:14:23;;;;;;;8.02;3.20;;;3.40;99.90;;;;;;4916543;28;20090;-78
2021/03/06 11:16:45;;;;;;;7.18;2.67;;;3.30;99.90;;;;;;4912122;28;20082;-78
2021/03/06 11:19:08;;;;;;;5.32;2.70;;;3.30;99.90;;;;;;4915585;28;20117;-78
2021/03/06 11:21:31;;;;;;;11.30;3.13;;;3.30;99.90;;;;;;4933523;28;20098;-77
2021/03/06 11:23:53;;;;;;;5.93;2.65;;;3.20;99.90;;;;;;4917468;28;20481;-79
2021/03/06 11:26:16;;;;;;;12.55;2.72;;;3.20;99.90;;;;;;4916365;28;20094;-79
2021/03/06 11:28:39;;;;;;;10.10;3.13;;;3.10;99.90;;;;;;4919048;28;20286;-80
2021/03/06 11:31:04;;;;;;;15.15;3.65;;;3.10;99.90;;;;;;4915774;28;20082;-80
2021/03/06 11:33:27;;;;;;;11.23;2.70;;;3.10;99.90;;;;;;4910387;28;20079;-80
2021/03/06 11:35:50;;;;;;;8.80;3.03;;;3.10;99.90;;;;;;4915587;28;20082;-82
2021/03/06 11:38:16;;;;;;;8.27;2.95;;;3.20;99.90;;;;;;4916518;28;20087;-80
2021/03/06 11:40:41;;;;;;;7.93;2.95;;;3.30;99.90;;;;;;4915873;28;20500;-79
2021/03/06 11:43:05;;;;;;;16.55;3.10;;;3.20;99.90;;;;;;4914019;28;20082;-80
2021/03/06 11:45:28;;;;;;;11.32;3.00;;;3.30;99.90;;;;;;4910390;28;20541;-80
2021/03/06 11:47:52;;;;;;;6.63;2.80;;;3.40;99.90;;;;;;4925735;28;20547;-80
2021/03/06 11:50:17;;;;;;;11.20;3.20;;;3.50;99.90;;;;;;4916814;28;20551;-80
2021/03/06 11:52:41;;;;;;;12.20;3.20;;;3.50;99.90;;;;;;4916129;28;20094;-79
2021/03/06 11:55:04;;;;;;;11.88;2.90;;;3.50;99.90;;;;;;4913052;28;20093;-80
2021/03/06 11:57:27;;;;;;;10.23;3.05;;;3.60;99.90;;;;;;4914645;28;20095;-79
2021/03/06 11:59:50;;;;;;;10.32;2.67;;;3.80;99.90;;;;;;4915091;28;20083;-79
2021/03/06 12:02:13;;;;;;;13.73;3.00;;;;;;;;;;4915625;28;20099;-79
2021/03/06 12:04:37;;;;;;;9.90;2.42;;;4.10;99.90;;;;;;4917433;28;20094;-80
2021/03/06 12:06:59;;;;;;;8.00;3.15;;;4.10;99.90;;;;;;4913756;28;20430;-79
2021/03/06 12:09:22;;;;;;;11.38;3.17;;;4.10;99.90;;;;;;4925236;28;20100;-80
2021/03/06 12:11:44;;;;;;;12.23;3.63;;;4.10;99.90;;;;;;4916761;28;20498;-80
2021/03/06 12:14:08;;;;;;;8.20;2.88;;;4.00;99.90;;;;;;4916912;28;20148;-80
2021/03/06 12:16:30;;;;;;;8.82;3.28;;;4.30;99.90;;;;;;4918403;28;20114;-80
2021/03/06 12:18:54;;;;;;;9.57;3.00;;;4.40;99.90;;;;;;4913969;28;20086;-81
2021/03/06 12:21:17;;;;;;;13.90;4.28;;;4.40;99.90;;;;;;4913373;28;20190;-81
2021/03/06 12:23:40;;;;;;;13.05;3.85;;;4.40;99.90;;;;;;4917286;28;20097;-79
2021/03/06 12:26:02;;;;;;;12.07;4.50;;;4.30;99.90;;;;;;4914578;28;20474;-79
2021/03/06 12:28:24;;;;;;;12.35;3.50;;;4.30;99.90;;;;;;4914870;28;20087;-81
2021/03/06 12:30:47;;;;;;;8.35;3.63;;;4.40;99.90;;;;;;4913695;28;20468;-80
2021/03/06 12:33:09;;;;;;;9.20;4.15;;;4.40;99.90;;;;;;4915982;28;20443;-80
2021/03/06 12:35:33;;;;;;;16.80;5.10;;;4.30;99.90;;;;;;4915451;28;20492;-80
2021/03/06 12:37:55;;;;;;;17.63;4.30;;;4.30;99.90;;;;;;4923181;28;20215;-81
2021/03/06 12:40:18;;;;;;;9.13;3.25;;;4.30;99.90;;;;;;4917798;28;20087;-81
2021/03/06 12:42:51;;;;;;;17.20;5.90;;;4.50;99.90;;;;;;4914749;28;20094;-80
2021/03/06 12:45:26;;;;;;;15.85;4.55;;;4.70;99.90;;;;;;4908451;28;20086;-81
2021/03/06 12:47:49;;;;;;;15.00;4.85;;;;;;;;;;4914137;28;20113;-80
2021/03/06 12:50:27;;;;;;;15.68;4.75;;;4.80;99.90;;;;;;4912109;28;20095;-80
2021/03/06 12:52:51;;;;;;;10.40;4.85;;;5.00;99.90;;;;;;4912293;28;20524;-81
2021/03/06 12:55:39;;;;;;;20.40;3.42;;;5.20;99.90;;;;;;4913804;28;20083;-80
2021/03/06 12:58:04;;;;;;;11.40;3.28;;;5.30;99.90;;;;;;4911415;28;20093;-80
2021/03/06 13:00:45;;;;;;;9.53;4.00;;;5.20;99.90;;;;;;4916722;28;20469;-80
2021/03/06 13:03:10;;;;;;;11.98;4.07;;;5.30;99.90;;;;;;4909954;28;20082;-79